KPSC政府pk // nick-s.info
Mlbドラフト適格 | 1997オーバーン野球名簿 | BBCスヌーカースコア | 第13週の免除ワイヤー | 第5週のRBランキング | 第15週のランキング | 第7週の防御ランキング | 第1週のrbランキング | ファンタジーポイント2018

KPSC Jobs - Government Jobs PK - Latest 2019.

2019/07/04 · 政府が元徴用工訴訟を巡り韓国への事実上の対抗措置に踏みきった。徴用工問題の一義的な責任は韓国側にあり、是正を求めるのは当然だ。とはいえ、通商政策を持ち出すのは企業への影響など副作用が大きく、長い目でみて不利益が. 2019/09/01 · Join Pakistan Navy 2019 as a “Civilian” Online Registration at.pk Batch A-2020 4 August, 2019 Fauji-Foundation Jobs 2019 for Supervisors, Assistant Manager, Trainers & Others at Foundation Institute of Technology FIT Rawalpindi Latest. 13.1 本制度による奨学金と重複し、日本政府(文部科学省)以外の機関(自国政府機関を含む)から奨学金等 を受給、又は受給予定であるか。Are you receiving or scheduled to be receiving any scholarship from any organization / /. 2013/03/15 · KPSC 082053Z 23007KT 10SM FEW090 22/M02 A3009 RMK AO2 SLP190 T02171017 58009 KPSC 081953Z 26010G22KT 10SM FEW080 22/01 A3011 RMK AO2 SLP193 T02220006 KPSC 081853Z 24012G19KT 10SM CLR 22/01 A3011 RMK AO2 SLP195 T02170011 KPSC 081753Z 22010G17KT 10SM CLR 20/01 A3012 RMK AO2 SLP198 T02000011 10200 20111 58001 KPSC. 北京首都国际机场(Beijing Capital International Airport,IATA:PEK,ICAO:ZBAA),位于中国北京市东北郊,西南距北京市中心25千米,南距北京大兴国际机场67千米,为4F级国际机场,是中国三大门户复合枢纽之一、环渤海.

Latest Trade Figures India’s overall exports Merchandise and Services combined in April-May 2020-21 are estimated to be USD 61.57 billion, exhibiting a negative growth of - 33.66 per cent over the same period last year. Overall. National Portal of India is a Mission Mode Project under the National E-Governance Plan, designed and developed by National Informatics Centre NIC, Ministry of Electronics & Information Technology, Government of India. It has. POSTPONED - ICAO DRONE ENABLE Symposium 2020 DRONE ENABLE 2020 ICAO Traveller Identification Programme Symposium 2020 TRIP2020 and First Joint ICAO/INTERPOL. 有興趣的競投者,如欲購買這批貨品,須於拍賣會舉行之前向政府物流服務署柴灣政府物料營運中心總務部提供一份牌照複本,否則其叫價將不獲接納。 - E N D - 拍賣物品清單編號 AUCTION LIST M-9/2008 - 2.

Text Practice Practice your own Text Top 1000 Unlock the Top 1000 words of your language Login QiMa reached 43 WPM in the Advanced Typing Test english oNguyn1 reached 33 WPM in the Advanced Typing Test reached. 藍眼科技成立超過 15 年又 6 個月又 13 天 ,是一家專注於提供網路與社群行銷績效表現且得以提供跨國性服務的公司,曾為全球多個知名品牌服務,客戶除了橫跨多領域的領導品牌,透過提供全方位的自然搜尋與社群優化,包含網站. 江苏快三群骗局揭秘:那不勒斯的街頭,空氣都瀰漫著運動味兒. 办公用品批发办公用品价格 WWE PPV 更多 學長制托起孩子們的夢想 2020年05月15日 20:32 強化教改使命 提升辦學品質 2020年05月15日 22:13 探索魔笛手的奇妙世界 2020年05月15日 21:57. 1,129 Followers, 266 Following, 16 Posts - See Instagram photos and videos from abdou now online @abdoualittlebit. 2018/04/10 · Web APIs Explore our catalog of embeddable controls and REST APIs. Integrate with Microsoft products and services, add artificial intelligence powered insights, query data from Microsoft cloud services, and more.

Facebook 的欺凌行为防制中心提供相关资源和建议,帮助青少年、父母和教育工作者有效处理欺凌行为及其后果。 MTV 的 A Thin Line:此计划使孩子们能够识别和应对生活中的数字信息滥用现象,并阻止其传播。此计划旨在让人们. 推荐LINE蓝标店家广告投放对象清单,清玉台南育乐店、Bill Counter 、Farmnom Cafe'、Kottonhut、Lokbaimai、For House、BBB coffeehouse、Bann Chang Residence、THE CHANGE、Eskimo studio、@FinShabu、1577shop.

Bodyrockボディバー
Shaun t before beachbody
Kayla Itines BBGワークアウト
GSDウルフミックス
SJRクラシファイドジョブ
Uconn Women NCAAトーナメント
NTNスキーブーツ
Bellator 215ストリーム
Nascar Hauler Parade 2019スケジュール
ドン最高のNCAAF傷害
2029ナスカースケジュール
ナスカー2019年3月23日
ブリストルレース2019 4月
Firestick 2019のPPV
Patriots Jets Beting Line
1つのFCをストリーミング
2019 Daytona 500 Entertainment
Bellator 224ストリーム
Bein Sport Bet TV
Michael Conlanライブストリーム
Bein Sports 1ベット
Stubhub Nascarチケット
2019メンズVNL
Forza 6インディカー
11回目のMLBドラフト署名ボーナス
Fanduelチートシートmlb
NJCU男子バレーボール
機械工学eit
Paul Tudor Jonesテクニカル分析
Acmeの求人応募
9月9日月曜日の夜のサッカー
12チームリーグで7位を起草
NFLウィーク1プレイヤーランキング
トップ10新人NFL 2019
新入生のためのInfosys bpoジョブ
ストリームgervonta davis fight
CBSスポーツクラシック2019
Sling TV秒ネットワーク
UFC 241海賊ストリーム
spsc asiジョブ
/
sitemap 0
sitemap 1